Terminal Aerodrome Forecast
Issued by NWS Twin Cities, MN

Home | Current Version | Previous Version | Graphics & Text | Print | Product List | Glossary On
Versions: 1 2 3 4 5 6 7 8 9 10 11 12 13 14 15 16 17 18 19 20 21 22 23 24 25
198
FTUS43 KMPX 290537 CCA
TAFMSP
TAF COR
KMSP 290537Z 2906/3012 10004KT P6SM SCT025 BKN040
     FM290900 03003KT 6SM BR OVC040
      TEMPO 2910/2913 3SM BR
     FM291400 05006KT P6SM SCT040 BKN100=

USA.gov is the U.S. government's official web portal to all federal, state and local government web resources and services.